sensor_id;sensor_type;location;lat;lon;timestamp;P1;durP1;ratioP1;P2;durP2;ratioP2
25980;SDS011;13772;52.996;9.124;2024-02-28T07:49:10;27.75;;;19.95;;
25980;SDS011;13772;52.996;9.124;2024-02-28T07:51:36;30.88;;;20.88;;
25980;SDS011;13772;52.996;9.124;2024-02-28T07:54:01;27.58;;;20.10;;
25980;SDS011;13772;52.996;9.124;2024-02-28T07:56:27;25.85;;;20.17;;
25980;SDS011;13772;52.996;9.124;2024-02-28T07:58:52;26.02;;;19.60;;
25980;SDS011;13772;52.996;9.124;2024-02-28T08:01:17;24.10;;;18.85;;
25980;SDS011;13772;52.996;9.124;2024-02-28T08:03:43;33.95;;;20.25;;
25980;SDS011;13772;52.996;9.124;2024-02-28T08:06:08;48.58;;;19.25;;
25980;SDS011;13772;52.996;9.124;2024-02-28T08:08:36;26.15;;;18.63;;
25980;SDS011;13772;52.996;9.124;2024-02-28T08:11:01;25.08;;;18.13;;
25980;SDS011;13772;52.996;9.124;2024-02-28T08:13:26;25.08;;;17.30;;
25980;SDS011;13772;52.996;9.124;2024-02-28T08:15:53;23.42;;;16.88;;
25980;SDS011;13772;52.996;9.124;2024-02-28T08:18:18;23.42;;;16.10;;
25980;SDS011;13772;52.996;9.124;2024-02-28T08:20:44;22.05;;;15.60;;
25980;SDS011;13772;52.996;9.124;2024-02-28T08:23:09;26.73;;;17.88;;
25980;SDS011;13772;52.996;9.124;2024-02-28T08:25:34;27.08;;;17.92;;
25980;SDS011;13772;52.996;9.124;2024-02-28T08:27:59;24.75;;;17.05;;
25980;SDS011;13772;52.996;9.124;2024-02-28T08:30:24;25.00;;;17.00;;
25980;SDS011;13772;52.996;9.124;2024-02-28T08:32:50;25.77;;;16.42;;
25980;SDS011;13772;52.996;9.124;2024-02-28T08:35:16;26.77;;;17.65;;
25980;SDS011;13772;52.996;9.124;2024-02-28T08:37:41;28.98;;;17.88;;
25980;SDS011;13772;52.996;9.124;2024-02-28T08:40:07;27.05;;;17.58;;
25980;SDS011;13772;52.996;9.124;2024-02-28T08:42:32;26.48;;;18.17;;
25980;SDS011;13772;52.996;9.124;2024-02-28T08:44:57;25.50;;;16.52;;
25980;SDS011;13772;52.996;9.124;2024-02-28T08:47:24;28.67;;;18.20;;
25980;SDS011;13772;52.996;9.124;2024-02-28T08:49:50;26.25;;;17.17;;
25980;SDS011;13772;52.996;9.124;2024-02-28T08:52:16;26.60;;;18.00;;
25980;SDS011;13772;52.996;9.124;2024-02-28T08:54:41;24.90;;;16.10;;
25980;SDS011;13772;52.996;9.124;2024-02-28T08:57:06;25.13;;;16.75;;
25980;SDS011;13772;52.996;9.124;2024-02-28T08:59:32;25.67;;;16.77;;
25980;SDS011;13772;52.996;9.124;2024-02-28T09:01:57;22.80;;;15.77;;
25980;SDS011;13772;52.996;9.124;2024-02-28T09:04:22;24.85;;;15.43;;
25980;SDS011;13772;52.996;9.124;2024-02-28T09:06:48;24.70;;;15.93;;
25980;SDS011;13772;52.996;9.124;2024-02-28T09:09:13;23.83;;;16.50;;
25980;SDS011;13772;52.996;9.124;2024-02-28T09:11:39;23.52;;;15.60;;
25980;SDS011;13772;52.996;9.124;2024-02-28T09:14:04;26.85;;;16.42;;
25980;SDS011;13772;52.996;9.124;2024-02-28T09:16:29;24.48;;;16.23;;
25980;SDS011;13772;52.996;9.124;2024-02-28T09:18:54;22.00;;;14.57;;
25980;SDS011;13772;52.996;9.124;2024-02-28T09:21:19;22.27;;;14.88;;
25980;SDS011;13772;52.996;9.124;2024-02-28T09:23:45;21.40;;;14.77;;
25980;SDS011;13772;52.996;9.124;2024-02-28T09:26:10;21.67;;;14.60;;
25980;SDS011;13772;52.996;9.124;2024-02-28T09:28:35;22.92;;;15.52;;
25980;SDS011;13772;52.996;9.124;2024-02-28T09:31:00;22.08;;;14.93;;
25980;SDS011;13772;52.996;9.124;2024-02-28T09:33:26;21.38;;;13.68;;
25980;SDS011;13772;52.996;9.124;2024-02-28T09:35:51;21.13;;;15.13;;
25980;SDS011;13772;52.996;9.124;2024-02-28T09:38:16;24.30;;;15.82;;
25980;SDS011;13772;52.996;9.124;2024-02-28T09:40:42;22.63;;;14.98;;
25980;SDS011;13772;52.996;9.124;2024-02-28T09:43:11;23.98;;;15.18;;
25980;SDS011;13772;52.996;9.124;2024-02-28T09:45:39;23.63;;;15.38;;
25980;SDS011;13772;52.996;9.124;2024-02-28T09:48:05;24.83;;;15.85;;
25980;SDS011;13772;52.996;9.124;2024-02-28T09:50:31;22.10;;;14.02;;
25980;SDS011;13772;52.996;9.124;2024-02-28T09:52:56;23.10;;;15.25;;
25980;SDS011;13772;52.996;9.124;2024-02-28T09:55:22;26.40;;;16.13;;
25980;SDS011;13772;52.996;9.124;2024-02-28T09:57:47;25.33;;;15.70;;
25980;SDS011;13772;52.996;9.124;2024-02-28T10:00:13;26.83;;;16.58;;
25980;SDS011;13772;52.996;9.124;2024-02-28T10:02:38;24.25;;;15.82;;
25980;SDS011;13772;52.996;9.124;2024-02-28T10:05:04;27.45;;;16.23;;
25980;SDS011;13772;52.996;9.124;2024-02-28T10:07:30;25.90;;;16.40;;
25980;SDS011;13772;52.996;9.124;2024-02-28T10:09:55;23.80;;;15.05;;
25980;SDS011;13772;52.996;9.124;2024-02-28T10:12:21;26.85;;;16.80;;
25980;SDS011;13772;52.996;9.124;2024-02-28T10:14:48;28.85;;;17.85;;
25980;SDS011;13772;52.996;9.124;2024-02-28T10:17:14;27.10;;;16.33;;
25980;SDS011;13772;52.996;9.124;2024-02-28T10:19:39;24.40;;;16.17;;
25980;SDS011;13772;52.996;9.124;2024-02-28T10:22:04;28.58;;;17.50;;
25980;SDS011;13772;52.996;9.124;2024-02-28T10:24:29;30.38;;;17.63;;
25980;SDS011;13772;52.996;9.124;2024-02-28T10:26:54;26.83;;;17.42;;
25980;SDS011;13772;52.996;9.124;2024-02-28T10:29:23;28.98;;;17.75;;
25980;SDS011;13772;52.996;9.124;2024-02-28T10:31:49;27.50;;;17.25;;
25980;SDS011;13772;52.996;9.124;2024-02-28T10:34:18;27.65;;;17.20;;
25980;SDS011;13772;52.996;9.124;2024-02-28T10:36:43;28.08;;;18.05;;
25980;SDS011;13772;52.996;9.124;2024-02-28T10:39:09;27.60;;;17.40;;
25980;SDS011;13772;52.996;9.124;2024-02-28T10:41:35;29.60;;;17.60;;
25980;SDS011;13772;52.996;9.124;2024-02-28T10:44:02;28.92;;;17.95;;
25980;SDS011;13772;52.996;9.124;2024-02-28T10:46:27;31.98;;;19.08;;
25980;SDS011;13772;52.996;9.124;2024-02-28T10:48:53;29.63;;;17.95;;
25980;SDS011;13772;52.996;9.124;2024-02-28T10:51:20;29.42;;;18.67;;
25980;SDS011;13772;52.996;9.124;2024-02-28T10:53:47;32.20;;;20.05;;
25980;SDS011;13772;52.996;9.124;2024-02-28T10:56:14;32.03;;;18.95;;
25980;SDS011;13772;52.996;9.124;2024-02-28T10:58:44;31.95;;;20.08;;
25980;SDS011;13772;52.996;9.124;2024-02-28T11:01:11;28.77;;;17.92;;
25980;SDS011;13772;52.996;9.124;2024-02-28T11:03:37;31.92;;;19.15;;
25980;SDS011;13772;52.996;9.124;2024-02-28T11:06:03;31.95;;;18.95;;
25980;SDS011;13772;52.996;9.124;2024-02-28T11:08:29;31.55;;;18.67;;
25980;SDS011;13772;52.996;9.124;2024-02-28T11:10:55;29.50;;;18.55;;
25980;SDS011;13772;52.996;9.124;2024-02-28T11:13:24;31.75;;;20.17;;
25980;SDS011;13772;52.996;9.124;2024-02-28T11:15:49;32.15;;;19.52;;
25980;SDS011;13772;52.996;9.124;2024-02-28T11:18:15;33.17;;;19.90;;
25980;SDS011;13772;52.996;9.124;2024-02-28T11:20:40;32.83;;;19.73;;
25980;SDS011;13772;52.996;9.124;2024-02-28T11:23:05;35.00;;;20.05;;
25980;SDS011;13772;52.996;9.124;2024-02-28T11:25:31;31.77;;;19.27;;
25980;SDS011;13772;52.996;9.124;2024-02-28T11:27:56;32.67;;;19.55;;
25980;SDS011;13772;52.996;9.124;2024-02-28T11:30:21;31.75;;;20.08;;
25980;SDS011;13772;52.996;9.124;2024-02-28T11:32:47;33.45;;;19.98;;
25980;SDS011;13772;52.996;9.124;2024-02-28T11:35:12;32.90;;;19.05;;
25980;SDS011;13772;52.996;9.124;2024-02-28T11:37:38;36.42;;;20.20;;
25980;SDS011;13772;52.996;9.124;2024-02-28T11:40:06;35.38;;;21.92;;
25980;SDS011;13772;52.996;9.124;2024-02-28T11:42:31;35.15;;;21.60;;
25980;SDS011;13772;52.996;9.124;2024-02-28T11:44:59;35.10;;;20.65;;
25980;SDS011;13772;52.996;9.124;2024-02-28T11:47:25;38.33;;;22.33;;
25980;SDS011;13772;52.996;9.124;2024-02-28T11:49:50;41.53;;;23.05;;
25980;SDS011;13772;52.996;9.124;2024-02-28T11:52:15;39.58;;;22.63;;
25980;SDS011;13772;52.996;9.124;2024-02-28T11:54:41;40.03;;;22.88;;
25980;SDS011;13772;52.996;9.124;2024-02-28T11:57:10;39.70;;;22.17;;
25980;SDS011;13772;52.996;9.124;2024-02-28T11:59:36;43.42;;;22.38;;
25980;SDS011;13772;52.996;9.124;2024-02-28T12:02:10;44.30;;;23.85;;
25980;SDS011;13772;52.996;9.124;2024-02-28T12:04:36;45.03;;;24.05;;
25980;SDS011;13772;52.996;9.124;2024-02-28T12:07:01;44.47;;;23.35;;
25980;SDS011;13772;52.996;9.124;2024-02-28T12:09:27;49.00;;;24.08;;
25980;SDS011;13772;52.996;9.124;2024-02-28T12:11:53;52.30;;;25.90;;
25980;SDS011;13772;52.996;9.124;2024-02-28T12:14:18;48.33;;;25.02;;
25980;SDS011;13772;52.996;9.124;2024-02-28T12:16:43;53.33;;;26.23;;
25980;SDS011;13772;52.996;9.124;2024-02-28T12:19:11;53.58;;;26.33;;
25980;SDS011;13772;52.996;9.124;2024-02-28T12:21:40;52.03;;;26.88;;
25980;SDS011;13772;52.996;9.124;2024-02-28T12:24:07;57.28;;;26.40;;
25980;SDS011;13772;52.996;9.124;2024-02-28T12:26:32;55.88;;;27.52;;
25980;SDS011;13772;52.996;9.124;2024-02-28T12:28:57;56.63;;;28.05;;
25980;SDS011;13772;52.996;9.124;2024-02-28T12:31:23;53.70;;;26.88;;
25980;SDS011;13772;52.996;9.124;2024-02-28T12:33:48;56.47;;;27.35;;
25980;SDS011;13772;52.996;9.124;2024-02-28T12:36:13;57.00;;;28.48;;
25980;SDS011;13772;52.996;9.124;2024-02-28T12:38:39;59.80;;;29.48;;
25980;SDS011;13772;52.996;9.124;2024-02-28T12:41:05;62.58;;;30.55;;
25980;SDS011;13772;52.996;9.124;2024-02-28T12:43:31;61.42;;;29.42;;
25980;SDS011;13772;52.996;9.124;2024-02-28T12:45:57;65.20;;;29.88;;
25980;SDS011;13772;52.996;9.124;2024-02-28T12:48:22;67.38;;;30.85;;
25980;SDS011;13772;52.996;9.124;2024-02-28T12:50:47;60.80;;;29.10;;
25980;SDS011;13772;52.996;9.124;2024-02-28T12:53:13;69.78;;;30.85;;
25980;SDS011;13772;52.996;9.124;2024-02-28T12:55:39;71.00;;;31.95;;
25980;SDS011;13772;52.996;9.124;2024-02-28T12:58:04;66.18;;;30.17;;
25980;SDS011;13772;52.996;9.124;2024-02-28T13:00:30;69.15;;;31.15;;
25980;SDS011;13772;52.996;9.124;2024-02-28T13:02:55;64.15;;;29.67;;
25980;SDS011;13772;52.996;9.124;2024-02-28T13:05:21;69.82;;;30.27;;
25980;SDS011;13772;52.996;9.124;2024-02-28T13:07:46;61.45;;;29.95;;
25980;SDS011;13772;52.996;9.124;2024-02-28T13:10:11;67.18;;;30.38;;
25980;SDS011;13772;52.996;9.124;2024-02-28T13:12:37;66.82;;;30.38;;
25980;SDS011;13772;52.996;9.124;2024-02-28T13:15:03;65.50;;;30.83;;
25980;SDS011;13772;52.996;9.124;2024-02-28T13:17:30;61.42;;;30.83;;
25980;SDS011;13772;52.996;9.124;2024-02-28T13:19:55;73.22;;;31.38;;
25980;SDS011;13772;52.996;9.124;2024-02-28T13:22:20;69.18;;;30.92;;
25980;SDS011;13772;52.996;9.124;2024-02-28T13:24:45;68.65;;;31.98;;
25980;SDS011;13772;52.996;9.124;2024-02-28T13:27:10;67.00;;;31.52;;
25980;SDS011;13772;52.996;9.124;2024-02-28T13:29:36;65.07;;;30.90;;
25980;SDS011;13772;52.996;9.124;2024-02-28T13:32:01;67.97;;;32.10;;
25980;SDS011;13772;52.996;9.124;2024-02-28T13:34:26;66.15;;;30.15;;
25980;SDS011;13772;52.996;9.124;2024-02-28T13:36:52;71.22;;;31.83;;
25980;SDS011;13772;52.996;9.124;2024-02-28T13:39:17;65.95;;;31.77;;
25980;SDS011;13772;52.996;9.124;2024-02-28T13:41:42;62.35;;;31.20;;
25980;SDS011;13772;52.996;9.124;2024-02-28T13:44:07;65.40;;;32.85;;
25980;SDS011;13772;52.996;9.124;2024-02-28T13:46:34;66.72;;;32.95;;
25980;SDS011;13772;52.996;9.124;2024-02-28T13:48:59;67.68;;;31.08;;
25980;SDS011;13772;52.996;9.124;2024-02-28T13:51:24;65.25;;;32.65;;
25980;SDS011;13772;52.996;9.124;2024-02-28T13:53:50;69.45;;;34.83;;
25980;SDS011;13772;52.996;9.124;2024-02-28T13:56:17;65.72;;;32.80;;
25980;SDS011;13772;52.996;9.124;2024-02-28T13:58:42;60.58;;;31.13;;
25980;SDS011;13772;52.996;9.124;2024-02-28T14:01:08;65.93;;;30.52;;
25980;SDS011;13772;52.996;9.124;2024-02-28T14:03:33;63.72;;;29.50;;
25980;SDS011;13772;52.996;9.124;2024-02-28T14:05:59;62.63;;;31.30;;
25980;SDS011;13772;52.996;9.124;2024-02-28T14:08:24;62.50;;;30.65;;
25980;SDS011;13772;52.996;9.124;2024-02-28T14:10:49;64.95;;;31.55;;
25980;SDS011;13772;52.996;9.124;2024-02-28T14:13:14;56.03;;;29.52;;
25980;SDS011;13772;52.996;9.124;2024-02-28T14:15:40;56.35;;;28.30;;
25980;SDS011;13772;52.996;9.124;2024-02-28T14:18:05;55.03;;;27.90;;
25980;SDS011;13772;52.996;9.124;2024-02-28T14:20:31;53.33;;;28.25;;
25980;SDS011;13772;52.996;9.124;2024-02-28T14:22:56;54.00;;;27.42;;
25980;SDS011;13772;52.996;9.124;2024-02-28T14:25:23;51.30;;;27.00;;
25980;SDS011;13772;52.996;9.124;2024-02-28T14:27:48;54.80;;;28.60;;
25980;SDS011;13772;52.996;9.124;2024-02-28T14:30:14;46.42;;;26.52;;
25980;SDS011;13772;52.996;9.124;2024-02-28T14:32:39;48.45;;;25.92;;
25980;SDS011;13772;52.996;9.124;2024-02-28T14:35:07;43.75;;;24.45;;
25980;SDS011;13772;52.996;9.124;2024-02-28T14:37:36;48.20;;;27.98;;
25980;SDS011;13772;52.996;9.124;2024-02-28T14:40:04;49.08;;;26.48;;
25980;SDS011;13772;52.996;9.124;2024-02-28T14:42:34;47.38;;;27.05;;
25980;SDS011;13772;52.996;9.124;2024-02-28T14:45:00;49.58;;;27.58;;
25980;SDS011;13772;52.996;9.124;2024-02-28T14:47:25;46.35;;;26.05;;
25980;SDS011;13772;52.996;9.124;2024-02-28T14:49:50;49.80;;;26.88;;
25980;SDS011;13772;52.996;9.124;2024-02-28T14:52:15;45.63;;;25.55;;
25980;SDS011;13772;52.996;9.124;2024-02-28T14:54:41;46.00;;;26.92;;
25980;SDS011;13772;52.996;9.124;2024-02-28T14:57:06;45.17;;;26.52;;
25980;SDS011;13772;52.996;9.124;2024-02-28T14:59:31;49.35;;;28.05;;
25980;SDS011;13772;52.996;9.124;2024-02-28T15:01:57;51.60;;;28.23;;
25980;SDS011;13772;52.996;9.124;2024-02-28T15:04:22;49.40;;;28.33;;
25980;SDS011;13772;52.996;9.124;2024-02-28T15:06:47;47.88;;;27.55;;
25980;SDS011;13772;52.996;9.124;2024-02-28T15:09:14;47.38;;;27.10;;
25980;SDS011;13772;52.996;9.124;2024-02-28T15:11:40;51.00;;;29.38;;
25980;SDS011;13772;52.996;9.124;2024-02-28T15:14:05;48.63;;;28.08;;
25980;SDS011;13772;52.996;9.124;2024-02-28T15:16:31;46.55;;;27.65;;
25980;SDS011;13772;52.996;9.124;2024-02-28T15:18:56;47.90;;;27.02;;
25980;SDS011;13772;52.996;9.124;2024-02-28T15:21:21;44.80;;;26.15;;
25980;SDS011;13772;52.996;9.124;2024-02-28T15:23:48;49.45;;;27.17;;
25980;SDS011;13772;52.996;9.124;2024-02-28T15:26:13;40.67;;;23.95;;
25980;SDS011;13772;52.996;9.124;2024-02-28T15:28:39;48.22;;;25.10;;
25980;SDS011;13772;52.996;9.124;2024-02-28T15:31:04;44.25;;;25.73;;
25980;SDS011;13772;52.996;9.124;2024-02-28T15:33:29;39.92;;;22.67;;
25980;SDS011;13772;52.996;9.124;2024-02-28T15:35:54;37.20;;;21.77;;
25980;SDS011;13772;52.996;9.124;2024-02-28T15:38:19;35.47;;;21.67;;
25980;SDS011;13772;52.996;9.124;2024-02-28T15:40:45;40.38;;;23.15;;
25980;SDS011;13772;52.996;9.124;2024-02-28T15:43:10;46.90;;;25.42;;
25980;SDS011;13772;52.996;9.124;2024-02-28T15:45:35;43.85;;;24.02;;
25980;SDS011;13772;52.996;9.124;2024-02-28T15:48:03;48.15;;;24.15;;
25980;SDS011;13772;52.996;9.124;2024-02-28T15:50:28;44.60;;;24.60;;
25980;SDS011;13772;52.996;9.124;2024-02-28T15:52:54;42.83;;;24.10;;
25980;SDS011;13772;52.996;9.124;2024-02-28T15:55:19;40.90;;;22.58;;
25980;SDS011;13772;52.996;9.124;2024-02-28T15:57:45;42.05;;;23.80;;
25980;SDS011;13772;52.996;9.124;2024-02-28T16:00:11;45.95;;;25.08;;
25980;SDS011;13772;52.996;9.124;2024-02-28T16:02:39;46.33;;;24.70;;
25980;SDS011;13772;52.996;9.124;2024-02-28T16:05:04;45.53;;;24.80;;
25980;SDS011;13772;52.996;9.124;2024-02-28T16:07:30;47.67;;;26.02;;
25980;SDS011;13772;52.996;9.124;2024-02-28T16:09:55;43.83;;;24.17;;
25980;SDS011;13772;52.996;9.124;2024-02-28T16:12:20;43.40;;;24.40;;
25980;SDS011;13772;52.996;9.124;2024-02-28T16:14:46;47.80;;;26.08;;
25980;SDS011;13772;52.996;9.124;2024-02-28T16:17:11;44.63;;;24.55;;
25980;SDS011;13772;52.996;9.124;2024-02-28T16:19:40;46.15;;;25.75;;
25980;SDS011;13772;52.996;9.124;2024-02-28T16:22:06;43.03;;;24.15;;
25980;SDS011;13772;52.996;9.124;2024-02-28T16:24:32;43.30;;;25.15;;
25980;SDS011;13772;52.996;9.124;2024-02-28T16:26:57;44.50;;;23.88;;
25980;SDS011;13772;52.996;9.124;2024-02-28T16:29:23;40.85;;;24.80;;
25980;SDS011;13772;52.996;9.124;2024-02-28T16:31:48;43.22;;;24.23;;
25980;SDS011;13772;52.996;9.124;2024-02-28T16:34:15;46.45;;;24.55;;
25980;SDS011;13772;52.996;9.124;2024-02-28T16:36:40;46.70;;;24.45;;
25980;SDS011;13772;52.996;9.124;2024-02-28T16:39:05;40.92;;;23.65;;
25980;SDS011;13772;52.996;9.124;2024-02-28T16:41:31;45.67;;;24.77;;
25980;SDS011;13772;52.996;9.124;2024-02-28T16:43:56;44.50;;;24.55;;
25980;SDS011;13772;52.996;9.124;2024-02-28T16:46:22;42.72;;;23.02;;
25980;SDS011;13772;52.996;9.124;2024-02-28T16:48:47;42.05;;;22.85;;
25980;SDS011;13772;52.996;9.124;2024-02-28T16:51:13;42.67;;;24.05;;
25980;SDS011;13772;52.996;9.124;2024-02-28T16:53:38;49.08;;;25.08;;
25980;SDS011;13772;52.996;9.124;2024-02-28T16:56:04;43.72;;;24.95;;
25980;SDS011;13772;52.996;9.124;2024-02-28T16:58:29;49.10;;;25.55;;
25980;SDS011;13772;52.996;9.124;2024-02-28T17:00:56;44.35;;;24.42;;
25980;SDS011;13772;52.996;9.124;2024-02-28T17:03:21;45.58;;;23.65;;
25980;SDS011;13772;52.996;9.124;2024-02-28T17:05:46;43.22;;;23.63;;
25980;SDS011;13772;52.996;9.124;2024-02-28T17:08:12;44.97;;;23.30;;
25980;SDS011;13772;52.996;9.124;2024-02-28T17:10:37;45.40;;;23.60;;
25980;SDS011;13772;52.996;9.124;2024-02-28T17:13:03;49.65;;;24.90;;
25980;SDS011;13772;52.996;9.124;2024-02-28T17:15:29;46.03;;;24.70;;
25980;SDS011;13772;52.996;9.124;2024-02-28T17:17:54;52.13;;;26.70;;
25980;SDS011;13772;52.996;9.124;2024-02-28T17:20:19;50.22;;;25.88;;
25980;SDS011;13772;52.996;9.124;2024-02-28T17:22:45;51.30;;;24.77;;
25980;SDS011;13772;52.996;9.124;2024-02-28T17:25:10;52.85;;;25.58;;
25980;SDS011;13772;52.996;9.124;2024-02-28T17:27:35;50.10;;;25.13;;
25980;SDS011;13772;52.996;9.124;2024-02-28T17:30:01;45.38;;;22.60;;
25980;SDS011;13772;52.996;9.124;2024-02-28T17:32:29;49.15;;;24.77;;
25980;SDS011;13772;52.996;9.124;2024-02-28T17:34:54;47.63;;;25.35;;
25980;SDS011;13772;52.996;9.124;2024-02-28T17:37:19;50.58;;;25.63;;
25980;SDS011;13772;52.996;9.124;2024-02-28T17:39:46;48.72;;;25.20;;
25980;SDS011;13772;52.996;9.124;2024-02-28T17:42:12;47.20;;;25.08;;
25980;SDS011;13772;52.996;9.124;2024-02-28T17:44:37;46.83;;;23.65;;
25980;SDS011;13772;52.996;9.124;2024-02-28T17:47:03;51.38;;;26.88;;
25980;SDS011;13772;52.996;9.124;2024-02-28T17:49:30;50.72;;;25.27;;
25980;SDS011;13772;52.996;9.124;2024-02-28T17:51:55;51.65;;;26.00;;
25980;SDS011;13772;52.996;9.124;2024-02-28T17:54:20;51.97;;;25.58;;
25980;SDS011;13772;52.996;9.124;2024-02-28T17:56:45;48.63;;;26.30;;
25980;SDS011;13772;52.996;9.124;2024-02-28T17:59:11;57.60;;;26.90;;
25980;SDS011;13772;52.996;9.124;2024-02-28T18:01:36;48.67;;;24.58;;
25980;SDS011;13772;52.996;9.124;2024-02-28T18:04:01;54.92;;;26.90;;
25980;SDS011;13772;52.996;9.124;2024-02-28T18:06:26;55.22;;;26.65;;
25980;SDS011;13772;52.996;9.124;2024-02-28T18:08:51;54.60;;;26.73;;
25980;SDS011;13772;52.996;9.124;2024-02-28T18:11:26;56.50;;;27.33;;
25980;SDS011;13772;52.996;9.124;2024-02-28T18:13:51;51.22;;;25.90;;
25980;SDS011;13772;52.996;9.124;2024-02-28T18:16:16;58.70;;;26.77;;
25980;SDS011;13772;52.996;9.124;2024-02-28T18:18:44;55.15;;;26.45;;
25980;SDS011;13772;52.996;9.124;2024-02-28T18:21:09;58.50;;;27.77;;
25980;SDS011;13772;52.996;9.124;2024-02-28T18:23:35;61.13;;;27.77;;
25980;SDS011;13772;52.996;9.124;2024-02-28T18:26:00;57.50;;;27.92;;
25980;SDS011;13772;52.996;9.124;2024-02-28T18:28:25;55.83;;;27.15;;
25980;SDS011;13772;52.996;9.124;2024-02-28T18:30:50;56.50;;;27.50;;
25980;SDS011;13772;52.996;9.124;2024-02-28T18:33:16;58.20;;;27.38;;
25980;SDS011;13772;52.996;9.124;2024-02-28T18:35:41;56.83;;;27.50;;
25980;SDS011;13772;52.996;9.124;2024-02-28T18:38:06;61.42;;;28.00;;
25980;SDS011;13772;52.996;9.124;2024-02-28T18:40:31;55.25;;;27.23;;
25980;SDS011;13772;52.996;9.124;2024-02-28T18:42:56;59.67;;;28.38;;
25980;SDS011;13772;52.996;9.124;2024-02-28T18:45:22;64.03;;;27.83;;
25980;SDS011;13772;52.996;9.124;2024-02-28T18:47:48;62.85;;;28.13;;
25980;SDS011;13772;52.996;9.124;2024-02-28T18:50:13;61.30;;;27.80;;
25980;SDS011;13772;52.996;9.124;2024-02-28T18:52:39;60.88;;;28.42;;
25980;SDS011;13772;52.996;9.124;2024-02-28T18:55:04;64.63;;;29.02;;
25980;SDS011;13772;52.996;9.124;2024-02-28T18:57:29;61.38;;;27.58;;
25980;SDS011;13772;52.996;9.124;2024-02-28T18:59:55;68.07;;;30.23;;
25980;SDS011;13772;52.996;9.124;2024-02-28T19:02:20;63.97;;;27.55;;
25980;SDS011;13772;52.996;9.124;2024-02-28T19:04:45;73.75;;;30.35;;
25980;SDS011;13772;52.996;9.124;2024-02-28T19:07:10;66.93;;;29.63;;
25980;SDS011;13772;52.996;9.124;2024-02-28T19:09:37;71.55;;;30.13;;
25980;SDS011;13772;52.996;9.124;2024-02-28T19:12:02;70.03;;;29.63;;
25980;SDS011;13772;52.996;9.124;2024-02-28T19:14:28;66.50;;;28.67;;
25980;SDS011;13772;52.996;9.124;2024-02-28T19:16:53;68.85;;;30.95;;
25980;SDS011;13772;52.996;9.124;2024-02-28T19:19:18;79.03;;;31.67;;
25980;SDS011;13772;52.996;9.124;2024-02-28T19:21:44;76.72;;;32.25;;
25980;SDS011;13772;52.996;9.124;2024-02-28T19:24:09;76.32;;;32.42;;
25980;SDS011;13772;52.996;9.124;2024-02-28T19:26:34;72.15;;;30.65;;
25980;SDS011;13772;52.996;9.124;2024-02-28T19:29:02;76.72;;;32.42;;
25980;SDS011;13772;52.996;9.124;2024-02-28T19:31:27;74.40;;;32.78;;
25980;SDS011;13772;52.996;9.124;2024-02-28T19:33:52;83.32;;;33.47;;
25980;SDS011;13772;52.996;9.124;2024-02-28T19:36:17;74.68;;;34.60;;
25980;SDS011;13772;52.996;9.124;2024-02-28T19:38:42;80.72;;;33.53;;
25980;SDS011;13772;52.996;9.124;2024-02-28T19:41:08;74.45;;;34.65;;
25980;SDS011;13772;52.996;9.124;2024-02-28T19:43:34;89.60;;;35.05;;
25980;SDS011;13772;52.996;9.124;2024-02-28T19:45:59;76.82;;;33.60;;
25980;SDS011;13772;52.996;9.124;2024-02-28T19:48:25;80.35;;;34.00;;
25980;SDS011;13772;52.996;9.124;2024-02-28T19:50:50;79.13;;;33.60;;
25980;SDS011;13772;52.996;9.124;2024-02-28T19:53:16;84.53;;;37.38;;
25980;SDS011;13772;52.996;9.124;2024-02-28T19:55:42;75.63;;;33.92;;
25980;SDS011;13772;52.996;9.124;2024-02-28T19:58:07;88.30;;;34.47;;
25980;SDS011;13772;52.996;9.124;2024-02-28T20:00:32;85.18;;;36.00;;
25980;SDS011;13772;52.996;9.124;2024-02-28T20:02:57;83.07;;;36.15;;
25980;SDS011;13772;52.996;9.124;2024-02-28T20:05:22;84.82;;;36.20;;
25980;SDS011;13772;52.996;9.124;2024-02-28T20:07:48;77.75;;;35.13;;
25980;SDS011;13772;52.996;9.124;2024-02-28T20:10:13;79.55;;;36.15;;
25980;SDS011;13772;52.996;9.124;2024-02-28T20:12:40;82.75;;;36.17;;
25980;SDS011;13772;52.996;9.124;2024-02-28T20:15:05;78.90;;;35.13;;
25980;SDS011;13772;52.996;9.124;2024-02-28T20:17:31;82.90;;;34.72;;
25980;SDS011;13772;52.996;9.124;2024-02-28T20:19:56;78.15;;;34.35;;
25980;SDS011;13772;52.996;9.124;2024-02-28T20:22:22;83.80;;;36.72;;
25980;SDS011;13772;52.996;9.124;2024-02-28T20:24:47;77.57;;;34.67;;
25980;SDS011;13772;52.996;9.124;2024-02-28T20:27:12;84.72;;;34.10;;
25980;SDS011;13772;52.996;9.124;2024-02-28T20:29:38;81.97;;;35.78;;
25980;SDS011;13772;52.996;9.124;2024-02-28T20:32:03;85.55;;;36.00;;
25980;SDS011;13772;52.996;9.124;2024-02-28T20:34:29;77.05;;;35.55;;
25980;SDS011;13772;52.996;9.124;2024-02-28T20:36:54;86.93;;;37.38;;
25980;SDS011;13772;52.996;9.124;2024-02-28T20:39:19;84.28;;;35.88;;
25980;SDS011;13772;52.996;9.124;2024-02-28T20:41:45;79.25;;;34.97;;
25980;SDS011;13772;52.996;9.124;2024-02-28T20:44:10;83.43;;;36.80;;
25980;SDS011;13772;52.996;9.124;2024-02-28T20:46:36;86.53;;;36.08;;
25980;SDS011;13772;52.996;9.124;2024-02-28T20:49:02;87.78;;;36.22;;
25980;SDS011;13772;52.996;9.124;2024-02-28T20:51:27;81.75;;;38.13;;
25980;SDS011;13772;52.996;9.124;2024-02-28T20:53:52;86.70;;;36.53;;
25980;SDS011;13772;52.996;9.124;2024-02-28T20:56:20;82.05;;;36.47;;
25980;SDS011;13772;52.996;9.124;2024-02-28T20:58:49;78.97;;;36.40;;
25980;SDS011;13772;52.996;9.124;2024-02-28T21:01:14;86.78;;;38.55;;
25980;SDS011;13772;52.996;9.124;2024-02-28T21:03:39;72.13;;;33.45;;
25980;SDS011;13772;52.996;9.124;2024-02-28T21:06:05;77.28;;;35.45;;
25980;SDS011;13772;52.996;9.124;2024-02-28T21:08:30;73.63;;;34.50;;
25980;SDS011;13772;52.996;9.124;2024-02-28T21:10:55;77.00;;;35.33;;
25980;SDS011;13772;52.996;9.124;2024-02-28T21:13:20;75.38;;;34.70;;
25980;SDS011;13772;52.996;9.124;2024-02-28T21:15:46;76.95;;;36.42;;
25980;SDS011;13772;52.996;9.124;2024-02-28T21:18:11;73.65;;;36.33;;
25980;SDS011;13772;52.996;9.124;2024-02-28T21:20:36;77.50;;;35.65;;
25980;SDS011;13772;52.996;9.124;2024-02-28T21:23:01;73.07;;;34.58;;
25980;SDS011;13772;52.996;9.124;2024-02-28T21:25:26;83.65;;;37.80;;
25980;SDS011;13772;52.996;9.124;2024-02-28T21:27:51;69.47;;;35.28;;
25980;SDS011;13772;52.996;9.124;2024-02-28T21:30:17;71.38;;;35.28;;
25980;SDS011;13772;52.996;9.124;2024-02-28T21:32:42;84.90;;;38.03;;
25980;SDS011;13772;52.996;9.124;2024-02-28T21:35:08;75.68;;;35.95;;
25980;SDS011;13772;52.996;9.124;2024-02-28T21:37:35;81.28;;;37.58;;
25980;SDS011;13772;52.996;9.124;2024-02-28T21:40:00;78.32;;;36.38;;
25980;SDS011;13772;52.996;9.124;2024-02-28T21:42:25;76.32;;;36.65;;
25980;SDS011;13772;52.996;9.124;2024-02-28T21:44:51;80.57;;;37.30;;
25980;SDS011;13772;52.996;9.124;2024-02-28T21:47:16;84.65;;;36.65;;
25980;SDS011;13772;52.996;9.124;2024-02-28T21:49:42;83.13;;;37.88;;
25980;SDS011;13772;52.996;9.124;2024-02-28T21:52:08;86.43;;;39.28;;
25980;SDS011;13772;52.996;9.124;2024-02-28T21:54:33;88.60;;;38.42;;
25980;SDS011;13772;52.996;9.124;2024-02-28T21:56:58;86.82;;;38.30;;
25980;SDS011;13772;52.996;9.124;2024-02-28T21:59:23;86.40;;;37.25;;